首页
METAR-TAF:

METAR-TAF

机场 :

Wilbarger County Airport

Vernon, 得克萨斯州, 美国

纬度: 34-13-32N, 经度: 099-17-01W, 海拔: 386米

当前天气观测

该预报发布于30分钟前的20:35 UTC
风速14节,风向南转南东,有时为17节阵风
温度 35°C
湿度 34%
气压 1011 hPa
能見度: 16.1公里
天空无云

METAR: KF05 152035Z AUTO 16014G17KT 10SM CLR 35/17 A2986 RMK AO2 T03470168

时间: 16:05 (21:05 UTC)


TAF: 丢失

超过4000个机场的气象观测和天气预报(METAR&TAF报告)。

可查询的气象台以黄色和红色小点在地图上表示。

将鼠标移到小点上方,可查看气象台名称。

然后点击查看天气观测和预报。

如需切换地图:点击带黑十字的绿色按钮放大地图;点击带横线的绿色按钮缩小地图;或者点击绿色箭头查看邻近地区的地图。


METAR-TAF: